createdAt,value
2023-11-25T00:00:54.806Z,42.50
2023-11-25T00:03:22.161Z,42.50
2023-11-25T00:05:50.471Z,42.60
2023-11-25T00:08:17.535Z,42.70
2023-11-25T00:10:44.624Z,42.80
2023-11-25T00:13:11.356Z,43.00
2023-11-25T00:15:38.790Z,42.90
2023-11-25T00:18:05.592Z,43.10
2023-11-25T00:20:32.324Z,43.00
2023-11-25T00:22:58.974Z,42.80
2023-11-25T00:25:25.874Z,42.80
2023-11-25T00:27:52.686Z,42.70
2023-11-25T00:30:20.151Z,42.80
2023-11-25T00:32:47.195Z,42.70
2023-11-25T00:35:15.173Z,42.70
2023-11-25T00:37:42.555Z,42.70
2023-11-25T00:40:18.046Z,42.80
2023-11-25T00:42:45.246Z,42.80
2023-11-25T00:45:12.118Z,42.70
2023-11-25T00:47:42.647Z,43.00
2023-11-25T00:50:12.805Z,43.10
2023-11-25T00:52:40.245Z,42.90
2023-11-25T00:55:09.910Z,42.90
2023-11-25T00:57:37.153Z,43.00
2023-11-25T01:00:06.043Z,42.80
2023-11-25T01:02:33.191Z,42.70
2023-11-25T01:04:59.960Z,42.90
2023-11-25T01:07:26.761Z,42.90
2023-11-25T01:09:53.666Z,43.00
2023-11-25T01:12:21.794Z,42.90
2023-11-25T01:14:48.623Z,42.90
2023-11-25T01:17:15.576Z,42.90
2023-11-25T01:19:42.807Z,42.90
2023-11-25T01:22:10.426Z,43.00
2023-11-25T01:24:37.192Z,42.90
2023-11-25T01:27:04.120Z,43.00
2023-11-25T01:29:31.086Z,42.90
2023-11-25T01:31:57.786Z,42.90
2023-11-25T01:34:24.613Z,43.00
2023-11-25T01:36:51.351Z,43.00
2023-11-25T01:39:17.997Z,43.00
2023-11-25T01:41:45.281Z,43.10
2023-11-25T01:44:13.621Z,43.00
2023-11-25T01:46:44.388Z,43.00
2023-11-25T01:49:14.571Z,43.00
2023-11-25T01:51:47.079Z,43.10
2023-11-25T01:54:18.173Z,43.10
2023-11-25T01:56:49.798Z,43.20
2023-11-25T01:59:17.805Z,43.20
2023-11-25T02:01:45.805Z,43.30
2023-11-25T02:04:12.758Z,43.30
2023-11-25T02:06:39.496Z,43.30
2023-11-25T02:09:06.683Z,43.30
2023-11-25T02:11:53.130Z,43.30
2023-11-25T02:14:19.811Z,43.30
2023-11-25T02:16:46.674Z,43.30
2023-11-25T02:19:13.497Z,43.30
2023-11-25T02:21:40.997Z,43.40
2023-11-25T02:24:08.492Z,43.40
2023-11-25T02:26:35.489Z,43.40
2023-11-25T02:29:02.151Z,43.50
2023-11-25T02:31:28.880Z,43.40
2023-11-25T02:33:55.554Z,43.40
2023-11-25T02:36:22.215Z,43.40
2023-11-25T02:38:48.873Z,43.40
2023-11-25T02:41:15.529Z,43.40
2023-11-25T02:43:42.330Z,43.50
2023-11-25T02:46:09.346Z,43.40
2023-11-25T02:48:38.743Z,43.40
2023-11-25T02:51:08.178Z,43.50
2023-11-25T02:53:34.895Z,43.50
2023-11-25T02:56:01.719Z,43.40
2023-11-25T02:58:28.380Z,43.40
2023-11-25T03:01:02.651Z,43.50
2023-11-25T03:03:29.479Z,43.50
2023-11-25T03:05:56.227Z,43.50
2023-11-25T03:08:28.658Z,43.50
2023-11-25T03:10:56.971Z,43.40
2023-11-25T03:13:24.241Z,43.40
2023-11-25T03:15:50.899Z,43.50
2023-11-25T03:18:17.588Z,43.60
2023-11-25T03:20:44.363Z,43.50
2023-11-25T03:23:11.064Z,43.40
2023-11-25T03:25:39.945Z,43.50
2023-11-25T03:28:09.957Z,43.40
2023-11-25T03:30:36.715Z,43.60
2023-11-25T03:33:03.539Z,43.50
2023-11-25T03:35:30.201Z,43.40
2023-11-25T03:37:56.827Z,43.40
2023-11-25T03:40:23.695Z,43.50
2023-11-25T03:42:50.759Z,43.50
2023-11-25T03:45:17.489Z,43.50
2023-11-25T03:47:45.319Z,43.50
2023-11-25T03:50:16.826Z,43.50
2023-11-25T03:52:43.799Z,43.40
2023-11-25T03:55:13.506Z,43.40
2023-11-25T03:57:41.062Z,43.60
2023-11-25T04:00:15.724Z,43.40
2023-11-25T04:02:47.268Z,43.50
2023-11-25T04:05:14.700Z,43.60
2023-11-25T04:07:41.535Z,43.50
2023-11-25T04:12:56.530Z,43.40
2023-11-25T04:15:23.462Z,43.70
2023-11-25T04:17:52.264Z,43.60
2023-11-25T04:20:25.400Z,43.70
2023-11-25T04:22:53.043Z,43.50
2023-11-25T04:25:20.194Z,43.50
2023-11-25T04:27:49.833Z,43.50
2023-11-25T04:30:18.449Z,43.50
2023-11-25T04:32:47.079Z,43.50
2023-11-25T04:35:16.879Z,43.50
2023-11-25T04:37:46.424Z,43.50
2023-11-25T04:40:14.100Z,43.50
2023-11-25T04:42:42.250Z,43.50
2023-11-25T04:45:28.168Z,43.50
2023-11-25T04:47:55.052Z,43.40
2023-11-25T04:50:21.917Z,43.50
2023-11-25T04:52:49.020Z,43.60
2023-11-25T04:55:16.463Z,43.60
2023-11-25T04:57:45.247Z,43.60
2023-11-25T05:00:14.649Z,43.70
2023-11-25T05:02:45.469Z,43.60
2023-11-25T05:05:13.778Z,43.70
2023-11-25T05:07:40.969Z,43.60
2023-11-25T05:10:11.263Z,43.60
2023-11-25T05:12:40.060Z,43.50
2023-11-25T05:15:08.845Z,43.70
2023-11-25T05:17:35.775Z,43.60
2023-11-25T05:20:02.725Z,43.60
2023-11-25T05:22:29.960Z,43.60
2023-11-25T05:24:56.931Z,43.60
2023-11-25T05:27:23.846Z,43.70
2023-11-25T05:29:53.307Z,43.60
2023-11-25T05:32:20.147Z,43.60
2023-11-25T05:34:46.971Z,43.70
2023-11-25T05:37:14.793Z,43.70
2023-11-25T05:39:42.095Z,43.70
2023-11-25T05:42:09.367Z,43.70
2023-11-25T05:44:36.328Z,43.70
2023-11-25T05:47:03.151Z,43.70
2023-11-25T05:49:30.198Z,43.70
2023-11-25T05:51:59.067Z,43.70
2023-11-25T05:54:27.462Z,43.70
2023-11-25T05:56:54.278Z,43.70
2023-11-25T05:59:20.962Z,43.70
2023-11-25T06:01:47.839Z,43.70
2023-11-25T06:04:16.905Z,43.70
2023-11-25T06:06:45.384Z,43.70
2023-11-25T06:09:13.124Z,43.70
2023-11-25T06:11:40.466Z,43.70
2023-11-25T06:14:07.357Z,43.90
2023-11-25T06:16:37.969Z,43.70
2023-11-25T06:19:05.460Z,43.70
2023-11-25T06:21:32.575Z,43.80
2023-11-25T06:24:01.493Z,43.70
2023-11-25T06:26:28.563Z,43.80
2023-11-25T06:28:56.584Z,43.80
2023-11-25T06:31:23.791Z,43.90
2023-11-25T06:33:51.156Z,43.80
2023-11-25T06:36:17.958Z,43.90
2023-11-25T06:38:45.062Z,43.80
2023-11-25T06:41:13.117Z,43.70
2023-11-25T06:43:40.263Z,43.70
2023-11-25T06:46:07.199Z,43.70
2023-11-25T06:48:34.858Z,43.80
2023-11-25T06:51:01.727Z,43.70
2023-11-25T06:53:30.368Z,43.70
2023-11-25T06:55:59.538Z,43.80
2023-11-25T06:58:26.579Z,43.80
2023-11-25T07:00:54.683Z,43.90
2023-11-25T07:03:21.710Z,43.80
2023-11-25T07:05:48.533Z,43.80
2023-11-25T07:08:17.134Z,43.90
2023-11-25T07:10:54.781Z,43.70
2023-11-25T07:13:23.431Z,43.90
2023-11-25T07:15:50.286Z,43.90
2023-11-25T07:18:19.852Z,43.90
2023-11-25T07:20:48.023Z,43.80
2023-11-25T07:23:15.889Z,43.90
2023-11-25T07:25:46.681Z,43.90
2023-11-25T07:28:14.477Z,44.00
2023-11-25T07:30:43.019Z,43.90
2023-11-25T07:33:10.550Z,43.90
2023-11-25T07:35:40.923Z,43.90
2023-11-25T07:38:08.061Z,43.90
2023-11-25T07:40:35.628Z,43.90
2023-11-25T07:43:02.522Z,43.90
2023-11-25T07:45:29.280Z,43.90
2023-11-25T07:47:56.071Z,43.90
2023-11-25T07:50:23.233Z,43.90
2023-11-25T07:52:51.327Z,43.90
2023-11-25T07:55:18.574Z,43.90
2023-11-25T07:57:45.457Z,43.90
2023-11-25T08:00:20.508Z,43.90
2023-11-25T08:02:50.847Z,44.00
2023-11-25T08:05:24.666Z,44.00
2023-11-25T08:07:55.881Z,44.00
2023-11-25T08:10:25.609Z,44.00
2023-11-25T08:12:52.505Z,44.00
2023-11-25T08:15:22.207Z,44.20
2023-11-25T08:17:49.887Z,44.10
2023-11-25T08:20:16.738Z,44.00
2023-11-25T08:22:44.598Z,44.00
2023-11-25T08:25:11.709Z,44.00
2023-11-25T08:27:39.643Z,43.90
2023-11-25T08:30:10.458Z,43.90
2023-11-25T08:32:41.619Z,44.00
2023-11-25T08:35:13.009Z,44.00
2023-11-25T08:37:40.722Z,44.20
2023-11-25T08:40:17.762Z,44.00
2023-11-25T08:42:45.896Z,43.90
2023-11-25T08:45:13.367Z,44.00
2023-11-25T08:47:42.906Z,44.00
2023-11-25T08:50:15.330Z,43.80
2023-11-25T08:52:43.390Z,43.90
2023-11-25T08:55:14.200Z,44.10
2023-11-25T08:57:40.938Z,44.30
2023-11-25T09:00:23.468Z,44.60
2023-11-25T09:02:53.192Z,44.60
2023-11-25T09:05:26.585Z,44.80
2023-11-25T09:07:56.306Z,44.70
2023-11-25T09:10:24.469Z,44.60
2023-11-25T09:12:53.546Z,44.60
2023-11-25T09:15:21.275Z,44.80
2023-11-25T09:17:48.036Z,44.90
2023-11-25T09:20:17.639Z,44.70
2023-11-25T09:22:45.250Z,44.40
2023-11-25T09:25:13.181Z,44.40
2023-11-25T09:27:40.933Z,44.50
2023-11-25T09:30:12.571Z,44.40
2023-11-25T09:32:40.446Z,44.50
2023-11-25T09:35:08.671Z,44.40
2023-11-25T09:37:35.701Z,44.30
2023-11-25T09:40:05.831Z,44.10
2023-11-25T09:42:33.642Z,44.30
2023-11-25T09:45:04.398Z,44.40
2023-11-25T09:47:31.154Z,44.40
2023-11-25T09:49:57.964Z,44.20
2023-11-25T09:52:27.072Z,44.20
2023-11-25T09:54:59.416Z,44.30
2023-11-25T09:57:33.525Z,44.30
2023-11-25T10:00:01.738Z,44.30
2023-11-25T10:02:31.467Z,44.30
2023-11-25T10:04:59.527Z,44.30
2023-11-25T10:07:28.472Z,44.30
2023-11-25T10:09:55.458Z,44.40
2023-11-25T10:12:22.374Z,44.40
2023-11-25T10:14:49.573Z,44.20
2023-11-25T10:17:18.912Z,44.10
2023-11-25T10:19:47.962Z,44.00
2023-11-25T10:22:18.182Z,44.10
2023-11-25T10:24:51.390Z,43.80
2023-11-25T10:27:18.870Z,43.70
2023-11-25T10:29:48.285Z,43.60
2023-11-25T10:32:15.622Z,43.80
2023-11-25T10:34:42.861Z,43.80
2023-11-25T10:37:10.280Z,43.90
2023-11-25T10:39:37.400Z,43.80
2023-11-25T10:42:08.681Z,44.10
2023-11-25T10:44:36.173Z,44.40
2023-11-25T10:47:03.946Z,44.40
2023-11-25T10:49:37.055Z,44.20
2023-11-25T10:52:07.699Z,44.60
2023-11-25T10:54:36.934Z,44.30
2023-11-25T10:57:06.835Z,44.10
2023-11-25T10:59:40.486Z,44.00
2023-11-25T11:02:14.990Z,43.90
2023-11-25T11:04:49.632Z,44.10
2023-11-25T11:07:18.043Z,44.00
2023-11-25T11:09:50.618Z,44.10
2023-11-25T11:12:28.205Z,44.50
2023-11-25T11:15:04.915Z,44.40
2023-11-25T11:17:54.825Z,44.10
2023-11-25T11:20:25.813Z,44.20
2023-11-25T11:22:53.027Z,44.60
2023-11-25T11:25:55.169Z,44.80
2023-11-25T11:28:26.746Z,44.80
2023-11-25T11:31:29.363Z,44.70
2023-11-25T11:33:56.812Z,44.70
2023-11-25T11:36:31.117Z,44.90
2023-11-25T11:38:58.318Z,45.00
2023-11-25T11:41:26.290Z,45.10
2023-11-25T11:44:13.347Z,45.40
2023-11-25T11:46:43.537Z,45.30
2023-11-25T11:49:15.627Z,45.30
2023-11-25T11:52:02.436Z,45.30
2023-11-25T11:54:29.969Z,45.10
2023-11-25T11:57:09.014Z,44.70
2023-11-25T12:00:01.658Z,44.60
2023-11-25T12:02:32.492Z,44.70
2023-11-25T12:05:00.844Z,44.80
2023-11-25T12:07:31.116Z,44.90
2023-11-25T12:09:58.694Z,44.80
2023-11-25T12:12:26.016Z,44.80
2023-11-25T12:14:55.105Z,44.60
2023-11-25T12:17:22.607Z,44.70
2023-11-25T12:19:52.720Z,44.70
2023-11-25T12:22:19.539Z,44.60
2023-11-25T12:24:46.386Z,44.50
2023-11-25T12:27:15.277Z,44.30
2023-11-25T12:29:42.268Z,44.20
2023-11-25T12:32:09.235Z,44.40
2023-11-25T12:34:36.549Z,44.30
2023-11-25T12:37:03.447Z,44.00
2023-11-25T12:39:30.250Z,44.00
2023-11-25T12:41:57.104Z,43.80
2023-11-25T12:44:23.846Z,44.10
2023-11-25T12:47:08.833Z,44.10
2023-11-25T12:49:36.688Z,44.10
2023-11-25T12:52:03.748Z,44.20
2023-11-25T12:54:46.663Z,44.40
2023-11-25T12:57:13.866Z,44.70
2023-11-25T12:59:40.833Z,44.90
2023-11-25T13:02:13.245Z,44.50
2023-11-25T13:04:47.683Z,44.80
2023-11-25T13:07:34.551Z,44.40
2023-11-25T13:10:02.256Z,44.70
2023-11-25T13:12:30.444Z,44.40
2023-11-25T13:14:57.446Z,44.40
2023-11-25T13:17:25.175Z,44.30
2023-11-25T13:19:52.089Z,44.90
2023-11-25T13:22:18.865Z,44.60
2023-11-25T13:24:46.564Z,44.60
2023-11-25T13:27:14.042Z,44.50
2023-11-25T13:29:43.300Z,44.90
2023-11-25T13:32:12.233Z,44.80
2023-11-25T13:34:42.235Z,44.80
2023-11-25T13:37:09.286Z,44.80
2023-11-25T13:39:36.904Z,44.70
2023-11-25T13:42:05.717Z,44.70
2023-11-25T13:44:32.694Z,44.80
2023-11-25T13:46:59.565Z,44.80
2023-11-25T13:49:30.252Z,44.90
2023-11-25T13:51:57.926Z,45.00
2023-11-25T13:54:27.725Z,44.80
2023-11-25T13:56:56.949Z,44.70
2023-11-25T13:59:24.158Z,44.70
2023-11-25T14:01:51.151Z,44.70
2023-11-25T14:04:20.156Z,44.60
2023-11-25T14:06:47.060Z,44.80
2023-11-25T14:09:18.504Z,44.90
2023-11-25T14:11:45.776Z,44.90
2023-11-25T14:14:13.600Z,44.70
2023-11-25T14:16:40.667Z,44.70
2023-11-25T14:19:08.132Z,44.70
2023-11-25T14:21:34.925Z,44.60
2023-11-25T14:24:01.794Z,45.00
2023-11-25T14:26:28.542Z,44.60
2023-11-25T14:28:55.513Z,44.60
2023-11-25T14:31:23.475Z,44.60
2023-11-25T14:33:50.275Z,44.40
2023-11-25T14:36:18.281Z,44.50
2023-11-25T14:38:45.140Z,44.40
2023-11-25T14:41:11.865Z,44.40
2023-11-25T14:43:39.693Z,44.30
2023-11-25T14:46:07.169Z,44.30
2023-11-25T14:48:33.950Z,44.30
2023-11-25T14:51:00.717Z,44.40
2023-11-25T14:53:27.582Z,44.40
2023-11-25T14:55:54.430Z,44.50
2023-11-25T14:58:21.124Z,44.60
2023-11-25T15:00:47.797Z,44.70
2023-11-25T15:03:14.916Z,44.70
2023-11-25T15:05:41.740Z,44.70
2023-11-25T15:08:08.659Z,44.80
2023-11-25T15:10:35.863Z,44.80
2023-11-25T15:13:02.673Z,44.80
2023-11-25T15:15:29.736Z,44.90
2023-11-25T15:17:56.486Z,44.90
2023-11-25T15:20:23.823Z,44.90
2023-11-25T15:22:52.210Z,44.90
2023-11-25T15:25:19.147Z,45.00
2023-11-25T15:27:46.197Z,45.10
2023-11-25T15:30:13.660Z,45.40
2023-11-25T15:32:43.594Z,45.20
2023-11-25T15:35:10.951Z,45.10
2023-11-25T15:37:38.198Z,45.00
2023-11-25T15:40:05.488Z,44.90
2023-11-25T15:42:32.183Z,44.80
2023-11-25T15:44:58.933Z,44.80
2023-11-25T15:47:25.738Z,44.80
2023-11-25T15:49:53.345Z,44.80
2023-11-25T15:52:20.811Z,44.70
2023-11-25T15:54:47.491Z,44.70
2023-11-25T15:57:14.226Z,44.70
2023-11-25T15:59:43.669Z,44.80
2023-11-25T16:02:10.726Z,44.70
2023-11-25T16:04:38.382Z,44.70
2023-11-25T16:07:07.948Z,44.60
2023-11-25T16:09:36.704Z,44.70
2023-11-25T16:12:04.180Z,44.70
2023-11-25T16:14:31.282Z,44.70
2023-11-25T16:16:58.115Z,44.60
2023-11-25T16:19:26.190Z,44.60
2023-11-25T16:21:55.614Z,44.70
2023-11-25T16:24:23.233Z,44.70
2023-11-25T16:26:51.200Z,44.70
2023-11-25T16:29:19.459Z,44.60
2023-11-25T16:31:46.588Z,44.70
2023-11-25T16:34:13.891Z,44.60
2023-11-25T16:36:41.503Z,44.70
2023-11-25T16:39:08.927Z,44.70
2023-11-25T16:41:35.772Z,44.70
2023-11-25T16:44:03.800Z,44.70
2023-11-25T16:46:30.614Z,44.70
2023-11-25T16:49:04.240Z,44.70
2023-11-25T16:51:34.616Z,44.60
2023-11-25T16:54:01.366Z,44.80
2023-11-25T16:56:28.028Z,44.90
2023-11-25T16:58:54.786Z,44.90
2023-11-25T17:01:24.493Z,44.90
2023-11-25T17:03:51.948Z,44.90
2023-11-25T17:06:19.645Z,44.90
2023-11-25T17:08:46.530Z,44.80
2023-11-25T17:11:13.365Z,44.90
2023-11-25T17:13:40.144Z,44.80
2023-11-25T17:16:07.229Z,44.80
2023-11-25T17:18:34.697Z,44.90
2023-11-25T17:21:02.422Z,45.00
2023-11-25T17:23:29.148Z,45.00
2023-11-25T17:25:55.882Z,45.10
2023-11-25T17:28:23.412Z,45.10
2023-11-25T17:30:50.100Z,45.20
2023-11-25T17:33:17.156Z,45.20
2023-11-25T17:35:43.937Z,45.30
2023-11-25T17:38:10.603Z,45.30
2023-11-25T17:40:37.493Z,45.40
2023-11-25T17:43:05.485Z,45.40
2023-11-25T17:45:32.363Z,45.50
2023-11-25T17:47:59.054Z,45.50
2023-11-25T17:50:25.720Z,45.60
2023-11-25T17:53:03.885Z,45.70
2023-11-25T17:55:36.503Z,45.70
2023-11-25T17:58:03.419Z,46.00
2023-11-25T18:00:31.604Z,45.90
2023-11-25T18:02:58.427Z,45.80
2023-11-25T18:05:25.382Z,45.80
2023-11-25T18:07:54.810Z,45.80
2023-11-25T18:10:21.753Z,45.80
2023-11-25T18:12:48.499Z,45.70
2023-11-25T18:15:15.276Z,45.70
2023-11-25T18:17:42.223Z,45.70
2023-11-25T18:20:12.217Z,45.80
2023-11-25T18:22:39.839Z,45.90
2023-11-25T18:25:07.109Z,46.00
2023-11-25T18:27:33.924Z,46.00
2023-11-25T18:30:00.712Z,45.90
2023-11-25T18:32:27.468Z,46.10
2023-11-25T18:34:54.260Z,46.10
2023-11-25T18:37:20.991Z,46.10
2023-11-25T18:39:47.682Z,46.10
2023-11-25T18:42:15.600Z,46.10
2023-11-25T18:44:43.799Z,46.20
2023-11-25T18:47:10.764Z,46.20
2023-11-25T18:49:37.649Z,46.10
2023-11-25T18:52:04.606Z,46.10
2023-11-25T18:54:34.063Z,46.20
2023-11-25T18:57:00.872Z,46.20
2023-11-25T18:59:27.557Z,46.20
2023-11-25T19:01:54.416Z,46.20
2023-11-25T19:04:23.174Z,46.20
2023-11-25T19:06:51.727Z,46.20
2023-11-25T19:09:18.683Z,46.20
2023-11-25T19:11:46.840Z,46.20
2023-11-25T19:14:16.370Z,46.20
2023-11-25T19:16:43.304Z,46.20
2023-11-25T19:19:11.141Z,46.20
2023-11-25T19:21:37.979Z,46.20
2023-11-25T19:24:05.486Z,46.20
2023-11-25T19:26:32.188Z,46.10
2023-11-25T19:28:58.875Z,46.10
2023-11-25T19:31:25.665Z,46.00
2023-11-25T19:33:52.730Z,46.10
2023-11-25T19:36:19.512Z,46.00
2023-11-25T19:38:46.483Z,46.00
2023-11-25T19:41:13.238Z,45.90
2023-11-25T19:43:39.958Z,46.00
2023-11-25T19:46:06.908Z,46.00
2023-11-25T19:48:34.427Z,46.00
2023-11-25T19:51:01.088Z,46.00
2023-11-25T19:53:49.117Z,46.00
2023-11-25T19:56:14.470Z,45.90
2023-11-25T19:58:41.714Z,45.90
2023-11-25T20:01:09.260Z,45.90
2023-11-25T20:03:36.057Z,45.90
2023-11-25T20:06:02.746Z,45.80
2023-11-25T20:08:29.495Z,45.80
2023-11-25T20:10:56.298Z,45.80
2023-11-25T20:13:23.062Z,45.80
2023-11-25T20:15:49.720Z,45.90
2023-11-25T20:18:18.142Z,45.90
2023-11-25T20:20:44.846Z,45.90
2023-11-25T20:23:11.757Z,45.90
2023-11-25T20:25:38.612Z,45.90
2023-11-25T20:28:05.309Z,45.90
2023-11-25T20:30:32.064Z,45.90
2023-11-25T20:32:58.775Z,45.90
2023-11-25T20:35:25.524Z,45.80
2023-11-25T20:37:52.289Z,45.80
2023-11-25T20:40:21.359Z,45.80
2023-11-25T20:42:48.177Z,45.80
2023-11-25T20:45:14.892Z,45.80
2023-11-25T20:47:41.592Z,45.70
2023-11-25T20:50:08.811Z,45.70
2023-11-25T20:52:36.545Z,45.70
2023-11-25T20:55:03.297Z,45.70
2023-11-25T20:57:29.973Z,45.70
2023-11-25T20:59:56.716Z,45.70
2023-11-25T21:02:23.595Z,45.70
2023-11-25T21:04:50.425Z,45.70
2023-11-25T21:07:17.150Z,45.60
2023-11-25T21:09:44.677Z,45.60
2023-11-25T21:12:13.751Z,45.60
2023-11-25T21:14:40.935Z,45.60
2023-11-25T21:17:07.671Z,45.50
2023-11-25T21:19:34.405Z,45.50
2023-11-25T21:22:01.124Z,45.50
2023-11-25T21:24:28.424Z,45.50
2023-11-25T21:26:55.139Z,45.50
2023-11-25T21:29:22.014Z,45.50
2023-11-25T21:31:48.762Z,45.50
2023-11-25T21:34:16.611Z,45.50
2023-11-25T21:36:45.737Z,45.40
2023-11-25T21:39:16.557Z,45.50
2023-11-25T21:41:43.248Z,45.50
2023-11-25T21:44:10.052Z,45.40
2023-11-25T21:46:37.381Z,45.40
2023-11-25T21:49:04.193Z,45.40
2023-11-25T21:51:31.486Z,45.40
2023-11-25T21:53:58.740Z,45.40
2023-11-25T21:56:25.646Z,45.40
2023-11-25T21:58:52.452Z,45.40
2023-11-25T22:01:19.131Z,45.40
2023-11-25T22:03:45.987Z,45.40
2023-11-25T22:06:23.316Z,45.40
2023-11-25T22:08:50.942Z,45.40
2023-11-25T22:11:21.400Z,45.40
2023-11-25T22:13:50.238Z,45.40
2023-11-25T22:16:20.440Z,45.40
2023-11-25T22:18:47.189Z,45.40
2023-11-25T22:21:14.045Z,45.40
2023-11-25T22:23:48.340Z,45.40
2023-11-25T22:26:33.115Z,45.40
2023-11-25T22:29:04.995Z,45.40
2023-11-25T22:31:32.337Z,45.40
2023-11-25T22:34:00.163Z,45.40
2023-11-25T22:36:28.209Z,45.40
2023-11-25T22:38:55.967Z,45.30
2023-11-25T22:41:25.132Z,45.30
2023-11-25T22:43:53.015Z,45.30
2023-11-25T22:46:23.806Z,45.30
2023-11-25T22:48:52.096Z,45.30
2023-11-25T22:51:22.304Z,45.30
2023-11-25T22:53:49.043Z,45.30
2023-11-25T22:56:15.877Z,45.30
2023-11-25T22:58:43.457Z,45.30
2023-11-25T23:01:14.683Z,45.20
2023-11-25T23:03:41.603Z,45.20
2023-11-25T23:06:10.333Z,45.20
2023-11-25T23:08:38.221Z,45.20
2023-11-25T23:11:09.689Z,45.20
2023-11-25T23:13:36.465Z,45.20
2023-11-25T23:16:03.501Z,45.20
2023-11-25T23:18:30.163Z,45.20
2023-11-25T23:20:59.262Z,45.20
2023-11-25T23:23:29.597Z,45.20
2023-11-25T23:26:05.591Z,45.30
2023-11-25T23:28:33.833Z,45.30
2023-11-25T23:31:00.613Z,45.40
2023-11-25T23:33:27.407Z,45.50
2023-11-25T23:35:54.649Z,45.50
2023-11-25T23:38:22.903Z,45.50
2023-11-25T23:40:49.791Z,45.50
2023-11-25T23:43:17.334Z,45.50
2023-11-25T23:45:44.237Z,45.40
2023-11-25T23:48:11.278Z,45.40
2023-11-25T23:50:38.544Z,45.40
2023-11-25T23:53:05.352Z,45.40
2023-11-25T23:55:32.530Z,45.40
2023-11-25T23:57:59.828Z,45.40
